createdAt,value
2023-12-23T05:09:46.100Z,96611.63
2023-12-23T05:20:15.722Z,96621.88
2023-12-23T05:30:37.939Z,96622.56
2023-12-23T05:41:05.540Z,96645.28
2023-12-23T05:51:27.641Z,96650.03
2023-12-23T06:01:55.682Z,96661.94
2023-12-23T06:12:25.011Z,96681.38
2023-12-23T06:22:52.847Z,96685.81
2023-12-23T06:33:20.781Z,96698.09
2023-12-23T06:43:52.666Z,96701.41
2023-12-23T06:54:21.670Z,96727.88
2023-12-23T07:04:50.138Z,96728.19
2023-12-23T07:15:18.193Z,96740.13
2023-12-23T07:25:45.881Z,96738.59
2023-12-23T07:36:13.750Z,96741.09
2023-12-23T07:46:41.878Z,96748.03
2023-12-23T07:57:09.686Z,96754.66
2023-12-23T08:07:37.753Z,96759.63
2023-12-23T08:17:59.182Z,96769.44
2023-12-23T08:28:27.069Z,96780.94
2023-12-23T08:38:55.846Z,96783.03
2023-12-23T08:49:24.030Z,96793.50
2023-12-23T08:59:52.220Z,96783.75
2023-12-23T09:10:20.209Z,96789.41
2023-12-23T09:20:43.834Z,96792.59
2023-12-23T09:31:13.221Z,96785.38
2023-12-23T09:41:42.413Z,96787.19
2023-12-23T09:52:05.448Z,96789.53
2023-12-23T10:02:33.366Z,96793.63
2023-12-23T10:13:01.356Z,96791.28
2023-12-23T10:23:23.920Z,96791.63
2023-12-23T10:33:56.415Z,96798.19
2023-12-23T10:44:27.601Z,96805.16
2023-12-23T10:54:55.715Z,96803.38
2023-12-23T11:05:23.946Z,96804.41
2023-12-23T11:16:01.897Z,96808.94
2023-12-23T11:26:39.134Z,96823.16
2023-12-23T11:37:06.373Z,96831.97
2023-12-23T11:47:33.392Z,96846.88
2023-12-23T11:58:01.957Z,96847.16
2023-12-23T12:08:30.139Z,96854.72
2023-12-23T12:18:58.078Z,96864.59
2023-12-23T12:29:26.942Z,96861.53
2023-12-23T12:39:48.796Z,96865.31
2023-12-23T12:50:19.874Z,96877.34
2023-12-23T13:00:49.107Z,96895.13
2023-12-23T13:11:11.780Z,96906.09
2023-12-23T13:21:39.934Z,96926.66
2023-12-23T13:32:09.032Z,96939.81
2023-12-23T13:42:38.275Z,96947.69
2023-12-23T13:53:00.484Z,96963.03
2023-12-23T14:03:28.032Z,96974.97
2023-12-23T14:13:56.169Z,96985.81
2023-12-23T14:24:25.328Z,97006.72
2023-12-23T14:34:48.181Z,97000.41
2023-12-23T14:45:10.855Z,97007.88
2023-12-23T14:55:41.624Z,97008.97
2023-12-23T15:06:09.889Z,97020.53
2023-12-23T15:16:32.278Z,97025.72
2023-12-23T15:26:54.773Z,97013.81
2023-12-23T15:37:23.312Z,97034.38
2023-12-23T15:47:52.106Z,97027.25
2023-12-23T15:58:20.852Z,97032.53
2023-12-23T16:08:43.008Z,97035.56
2023-12-23T16:19:10.777Z,97040.78
2023-12-23T16:29:44.764Z,97044.81
2023-12-23T16:40:13.835Z,97047.81
2023-12-23T16:50:41.468Z,97057.88
2023-12-23T17:01:09.836Z,97071.28
2023-12-23T17:11:31.752Z,97069.03
2023-12-23T17:21:59.761Z,97078.34
2023-12-23T17:32:27.186Z,97067.19
2023-12-23T17:42:54.969Z,97070.91
2023-12-23T17:53:24.537Z,97075.75
2023-12-23T18:03:52.545Z,97074.25
2023-12-23T18:14:19.681Z,97089.19
2023-12-23T18:24:42.531Z,97081.41
2023-12-23T18:35:05.480Z,97099.66
2023-12-23T18:45:34.077Z,97103.78
2023-12-23T18:56:01.963Z,97111.22
2023-12-23T19:06:31.020Z,97119.78
2023-12-23T19:16:58.973Z,97124.63
2023-12-23T19:27:21.173Z,97132.47
2023-12-23T19:37:43.233Z,97138.44
2023-12-23T19:48:07.664Z,97138.78
2023-12-23T19:58:34.991Z,97144.41
2023-12-23T20:08:57.977Z,97156.69
2023-12-23T20:19:20.744Z,97162.66
2023-12-23T20:29:48.512Z,97161.91
2023-12-23T20:40:16.256Z,97171.59
2023-12-23T20:50:45.158Z,97177.19
2023-12-23T21:01:13.293Z,97169.72
2023-12-23T21:11:36.729Z,97173.81
2023-12-23T21:22:04.461Z,97154.06
2023-12-23T21:32:32.818Z,97164.50
2023-12-23T21:42:55.100Z,97152.56
2023-12-23T21:53:25.948Z,97164.50
